SBJR

Details ICAO SBJR
Name Jacarepagua
Region Brazil
Timezone America/Sao_Paulo (UTC-3.0)
Plans Departing 34
Arriving 32
Stats Elevation 10 ft / 3 m (AMSL)
Location -22.987778° -43.370277°
Runways 1
Magnetic Variation 22.720° W
Sunrise 2018-02-22 08:47:18 UTC / 2018-02-22 05:47:18 Local
Sunset 2018-02-22 21:29:37 UTC / 2018-02-22 18:29:37 Local
Advertisement - Login to hide

Runways

ID Width Length Bearing (true) Bearing (mag) Surface Threshold Offset Overrun Length
02 42 ft / 13 m 2,955 ft / 901 m 359.00° 21.72° Concrete 0 ft / 0 m 0 ft / 0 m
20 42 ft / 13 m 2,955 ft / 901 m 179.00° 201.72° Concrete 0 ft / 0 m 0 ft / 0 m

Map

Weather


0- 5 10 15 20 25 30 35+ Temperature / ° C

Clouds and Precipitation
Forecast for 2018-02-22 12:00 UTC. Updated 2 hours ago

Ground ~20,000 ft ~40,000 ft Winds

METAR

SBJR 221000Z 02004KT 9999 FEW018 BKN100 25/24 Q1008

TAF

Not found
Warning: Do not use this data for real-world aviation or navigation. No guarantee of current accuracy is given.